createdAt,value
2022-12-20T00:01:32.081Z,4.60
2022-12-20T00:04:03.665Z,4.13
2022-12-20T00:06:31.846Z,4.50
2022-12-20T00:09:01.826Z,3.63
2022-12-20T00:11:30.144Z,4.40
2022-12-20T00:13:58.776Z,4.30
2022-12-20T00:16:28.329Z,4.60
2022-12-20T00:18:59.030Z,3.43
2022-12-20T00:21:26.990Z,4.00
2022-12-20T00:23:57.804Z,4.70
2022-12-20T00:26:29.647Z,3.67
2022-12-20T00:28:57.490Z,4.67
2022-12-20T00:31:27.289Z,3.50
2022-12-20T00:33:57.462Z,3.87
2022-12-20T00:36:27.332Z,3.60
2022-12-20T00:38:56.676Z,3.57
2022-12-20T00:41:28.007Z,3.50
2022-12-20T00:43:55.869Z,3.67
2022-12-20T00:46:25.104Z,3.70
2022-12-20T00:48:54.670Z,3.60
2022-12-20T00:51:25.481Z,3.67
2022-12-20T00:53:53.790Z,3.40
2022-12-20T00:56:21.357Z,3.37
2022-12-20T00:58:49.821Z,2.60
2022-12-20T01:01:22.060Z,2.93
2022-12-20T01:03:52.310Z,2.80
2022-12-20T01:06:21.396Z,3.23
2022-12-20T01:08:48.929Z,3.17
2022-12-20T01:11:23.468Z,3.00
2022-12-20T01:13:54.007Z,3.17
2022-12-20T01:16:34.955Z,3.43
2022-12-20T01:19:03.254Z,3.00
2022-12-20T01:21:31.193Z,3.33
2022-12-20T01:23:58.818Z,3.20
2022-12-20T01:26:28.989Z,3.40
2022-12-20T01:28:59.223Z,3.50
2022-12-20T01:31:28.480Z,3.17
2022-12-20T01:33:56.818Z,3.40
2022-12-20T01:36:29.468Z,3.13
2022-12-20T01:39:03.413Z,3.10
2022-12-20T01:41:33.530Z,3.50
2022-12-20T01:44:04.150Z,3.60
2022-12-20T01:46:39.821Z,3.20
2022-12-20T01:49:31.048Z,3.00
2022-12-20T01:52:10.828Z,3.60
2022-12-20T01:54:46.793Z,3.53
2022-12-20T01:57:21.095Z,4.10
2022-12-20T01:59:52.050Z,3.37
2022-12-20T02:02:21.434Z,3.17
2022-12-20T02:04:49.065Z,4.20
2022-12-20T02:07:22.978Z,4.30
2022-12-20T02:09:51.578Z,3.60
2022-12-20T02:12:25.404Z,3.87
2022-12-20T02:15:10.117Z,3.63
2022-12-20T02:17:43.780Z,3.73
2022-12-20T02:20:29.737Z,3.97
2022-12-20T02:23:33.568Z,3.77
2022-12-20T02:26:39.331Z,3.70
2022-12-20T02:29:18.968Z,5.00
2022-12-20T02:31:59.125Z,4.53
2022-12-20T02:34:29.168Z,4.50
2022-12-20T02:36:56.923Z,3.57
2022-12-20T02:39:27.215Z,4.13
2022-12-20T02:42:04.721Z,4.20
2022-12-20T02:47:31.025Z,4.60
2022-12-20T02:49:59.644Z,4.67
2022-12-20T02:52:31.249Z,4.50
2022-12-20T02:55:01.942Z,3.93
2022-12-20T02:57:35.430Z,4.60
2022-12-20T03:00:10.648Z,4.57
2022-12-20T03:02:58.200Z,4.13
2022-12-20T03:05:27.627Z,4.13
2022-12-20T03:07:55.869Z,4.80
2022-12-20T03:10:26.305Z,4.67
2022-12-20T03:12:54.038Z,5.37
2022-12-20T03:15:21.723Z,4.33
2022-12-20T03:17:52.805Z,5.33
2022-12-20T03:20:20.493Z,5.03
2022-12-20T03:22:48.235Z,4.73
2022-12-20T03:25:15.949Z,5.80
2022-12-20T03:27:43.603Z,4.90
2022-12-20T03:30:11.639Z,5.57
2022-12-20T03:32:39.105Z,6.07
2022-12-20T03:35:07.656Z,5.47
2022-12-20T03:37:38.996Z,5.47
2022-12-20T03:40:08.576Z,5.63
2022-12-20T03:42:36.250Z,5.67
2022-12-20T03:45:05.146Z,5.60
2022-12-20T03:47:33.151Z,5.93
2022-12-20T03:50:01.013Z,6.57
2022-12-20T03:52:32.708Z,5.30
2022-12-20T03:55:00.843Z,6.43
2022-12-20T04:00:12.959Z,5.27
2022-12-20T04:02:43.325Z,6.87
2022-12-20T04:05:13.245Z,5.67
2022-12-20T04:07:41.162Z,5.77
2022-12-20T04:10:09.179Z,6.00
2022-12-20T04:12:37.415Z,7.17
2022-12-20T04:15:09.000Z,6.23
2022-12-20T04:17:38.247Z,5.93
2022-12-20T04:20:19.245Z,6.33
2022-12-20T04:22:52.544Z,5.53
2022-12-20T04:25:21.643Z,6.10
2022-12-20T04:27:49.453Z,6.40
2022-12-20T04:30:17.020Z,6.50
2022-12-20T04:32:44.651Z,5.37
2022-12-20T04:35:12.167Z,6.20
2022-12-20T04:37:42.691Z,5.93
2022-12-20T04:40:10.901Z,7.17
2022-12-20T04:42:49.826Z,6.63
2022-12-20T04:45:18.271Z,6.60
2022-12-20T04:47:46.733Z,7.00
2022-12-20T04:50:19.226Z,6.77
2022-12-20T04:53:05.770Z,7.03
2022-12-20T04:55:38.592Z,6.77
2022-12-20T04:58:08.078Z,6.93
2022-12-20T05:00:38.827Z,6.80
2022-12-20T05:03:20.000Z,6.30
2022-12-20T05:05:47.936Z,6.73
2022-12-20T05:08:15.519Z,6.70
2022-12-20T05:10:44.756Z,7.33
2022-12-20T05:13:13.720Z,7.63
2022-12-20T05:15:44.775Z,8.27
2022-12-20T05:18:13.230Z,7.17
2022-12-20T05:21:18.440Z,7.53
2022-12-20T05:24:07.277Z,6.67
2022-12-20T05:26:48.559Z,6.93
2022-12-20T05:29:18.510Z,7.23
2022-12-20T05:31:47.742Z,8.03
2022-12-20T05:34:16.620Z,7.57
2022-12-20T05:36:49.292Z,6.67
2022-12-20T05:39:17.517Z,8.03
2022-12-20T05:41:47.474Z,6.77
2022-12-20T05:44:15.403Z,7.20
2022-12-20T05:46:46.454Z,6.37
2022-12-20T05:49:19.056Z,6.17
2022-12-20T05:51:46.832Z,7.10
2022-12-20T05:54:25.681Z,6.10
2022-12-20T05:57:31.725Z,6.70
2022-12-20T05:59:59.593Z,6.93
2022-12-20T06:02:27.175Z,7.03
2022-12-20T06:05:04.749Z,7.03
2022-12-20T06:07:32.297Z,5.73
2022-12-20T06:10:01.075Z,5.87
2022-12-20T06:12:42.529Z,5.93
2022-12-20T06:15:10.987Z,5.43
2022-12-20T06:17:39.924Z,6.10
2022-12-20T06:20:08.309Z,6.23
2022-12-20T06:22:37.672Z,5.57
2022-12-20T06:25:06.158Z,5.90
2022-12-20T06:27:36.352Z,4.53
2022-12-20T06:30:33.795Z,5.17
2022-12-20T06:33:13.545Z,5.47
2022-12-20T06:35:41.090Z,4.50
2022-12-20T06:38:08.817Z,4.90
2022-12-20T06:40:36.746Z,4.53
2022-12-20T06:43:04.577Z,4.27
2022-12-20T06:45:37.593Z,4.17
2022-12-20T06:48:09.542Z,4.25
2022-12-20T06:50:40.983Z,4.23
2022-12-20T06:53:11.255Z,4.20
2022-12-20T06:55:39.568Z,4.23
2022-12-20T06:58:07.833Z,4.50
2022-12-20T07:00:37.944Z,4.40
2022-12-20T07:03:05.585Z,4.03
2022-12-20T07:05:35.540Z,3.73
2022-12-20T07:08:04.628Z,3.73
2022-12-20T07:10:34.661Z,3.90
2022-12-20T07:13:02.211Z,2.93
2022-12-20T07:15:29.743Z,3.27
2022-12-20T07:17:57.358Z,3.43
2022-12-20T07:20:24.892Z,3.30
2022-12-20T07:22:52.502Z,3.20
2022-12-20T07:25:20.112Z,2.97
2022-12-20T07:27:50.092Z,3.00
2022-12-20T07:30:19.392Z,2.97
2022-12-20T07:32:47.444Z,3.07
2022-12-20T07:35:16.093Z,2.87
2022-12-20T07:37:43.689Z,3.10
2022-12-20T07:40:12.512Z,3.07
2022-12-20T07:42:46.315Z,3.13
2022-12-20T07:45:16.496Z,3.10
2022-12-20T07:47:44.113Z,3.33
2022-12-20T07:50:12.061Z,3.40
2022-12-20T07:52:42.095Z,3.13
2022-12-20T07:55:11.191Z,3.73
2022-12-20T07:57:51.811Z,3.03
2022-12-20T08:00:19.605Z,4.57
2022-12-20T08:03:02.338Z,3.20
2022-12-20T08:05:30.230Z,3.67
2022-12-20T08:07:59.799Z,3.00
2022-12-20T08:10:28.974Z,2.73
2022-12-20T08:12:57.845Z,3.73
2022-12-20T08:15:26.803Z,2.80
2022-12-20T08:17:54.415Z,3.17
2022-12-20T08:20:22.307Z,2.80
2022-12-20T08:22:49.968Z,3.47
2022-12-20T08:25:17.525Z,2.93
2022-12-20T08:27:48.075Z,2.63
2022-12-20T08:30:15.937Z,3.17
2022-12-20T08:32:43.447Z,3.53
2022-12-20T08:35:13.280Z,2.20
2022-12-20T08:37:40.847Z,2.97
2022-12-20T08:40:09.657Z,3.13
2022-12-20T08:42:37.125Z,2.83
2022-12-20T08:45:05.410Z,2.90
2022-12-20T08:47:33.072Z,3.40
2022-12-20T08:50:01.304Z,3.07
2022-12-20T08:52:31.196Z,3.37
2022-12-20T08:55:01.431Z,3.40
2022-12-20T08:57:30.790Z,3.10
2022-12-20T08:59:58.493Z,5.30
2022-12-20T09:02:26.534Z,3.43
2022-12-20T09:04:54.393Z,3.43
2022-12-20T09:07:21.874Z,3.40
2022-12-20T09:09:49.442Z,3.40
2022-12-20T09:12:16.951Z,3.07
2022-12-20T09:14:45.299Z,2.80
2022-12-20T09:17:12.907Z,3.57
2022-12-20T09:19:40.466Z,3.10
2022-12-20T09:22:08.891Z,3.60
2022-12-20T09:24:38.108Z,2.60
2022-12-20T09:27:05.687Z,3.23
2022-12-20T09:29:35.702Z,3.80
2022-12-20T09:32:04.133Z,3.67
2022-12-20T09:34:31.695Z,3.10
2022-12-20T09:36:59.305Z,3.33
2022-12-20T09:39:26.876Z,3.00
2022-12-20T09:41:54.527Z,3.30
2022-12-20T09:44:25.043Z,3.70
2022-12-20T09:47:04.913Z,3.80
2022-12-20T09:49:40.245Z,3.83
2022-12-20T09:52:13.572Z,4.07
2022-12-20T09:55:02.957Z,3.17
2022-12-20T09:57:55.490Z,3.50
2022-12-20T10:00:23.095Z,3.17
2022-12-20T10:03:08.291Z,2.70
2022-12-20T10:05:50.264Z,3.30
2022-12-20T10:08:32.952Z,3.20
2022-12-20T10:11:13.200Z,2.67
2022-12-20T10:14:19.429Z,2.67
2022-12-20T10:16:53.945Z,3.20
2022-12-20T10:19:24.409Z,3.13
2022-12-20T10:21:58.007Z,3.00
2022-12-20T10:24:31.355Z,3.13
2022-12-20T10:27:12.088Z,3.20
2022-12-20T10:29:40.383Z,2.80
2022-12-20T10:32:23.323Z,2.63
2022-12-20T10:35:20.235Z,3.70
2022-12-20T10:38:17.762Z,3.10
2022-12-20T10:41:20.653Z,2.93
2022-12-20T10:43:54.075Z,2.97
2022-12-20T10:46:22.334Z,3.50
2022-12-20T10:48:51.000Z,3.30
2022-12-20T10:51:23.202Z,2.90
2022-12-20T10:54:02.536Z,3.20
2022-12-20T10:56:36.516Z,2.80
2022-12-20T10:59:36.976Z,3.80
2022-12-20T11:02:38.789Z,2.53
2022-12-20T11:05:10.779Z,3.90
2022-12-20T11:08:24.758Z,3.40
2022-12-20T11:10:39.273Z,3.20
2022-12-20T11:13:06.907Z,2.87
2022-12-20T11:15:36.434Z,3.60
2022-12-20T11:18:31.679Z,3.40
2022-12-20T11:21:27.909Z,3.63
2022-12-20T11:24:02.862Z,2.80
2022-12-20T11:26:42.354Z,2.97
2022-12-20T11:29:30.439Z,3.37
2022-12-20T11:32:26.817Z,3.22
2022-12-20T11:35:38.621Z,2.60
2022-12-20T11:38:15.033Z,2.80
2022-12-20T11:40:59.779Z,3.10
2022-12-20T11:44:23.121Z,3.13
2022-12-20T11:46:57.438Z,3.03
2022-12-20T11:49:31.490Z,3.70
2022-12-20T11:52:12.206Z,3.10
2022-12-20T11:54:53.759Z,3.57
2022-12-20T11:57:28.180Z,3.07
2022-12-20T12:00:00.280Z,3.23
2022-12-20T12:02:58.446Z,2.77
2022-12-20T12:05:47.370Z,3.58
2022-12-20T12:08:47.055Z,3.63
2022-12-20T12:14:38.637Z,3.27
2022-12-20T12:17:12.923Z,2.70
2022-12-20T12:19:46.800Z,3.20
2022-12-20T12:22:25.010Z,3.20
2022-12-20T12:25:00.214Z,3.70
2022-12-20T12:27:28.618Z,3.00
2022-12-20T12:29:58.912Z,3.30
2022-12-20T12:32:31.403Z,2.80
2022-12-20T12:35:24.075Z,3.70
2022-12-20T12:38:09.765Z,3.67
2022-12-20T12:41:04.287Z,3.53
2022-12-20T12:43:40.995Z,3.40
2022-12-20T12:46:16.711Z,3.77
2022-12-20T12:49:15.701Z,3.80
2022-12-20T12:51:52.268Z,3.60
2022-12-20T12:54:30.939Z,3.20
2022-12-20T12:57:06.922Z,3.50
2022-12-20T12:59:34.475Z,3.50
2022-12-20T13:02:14.288Z,3.97
2022-12-20T13:05:02.100Z,4.20
2022-12-20T13:07:33.451Z,4.20
2022-12-20T13:10:10.188Z,3.20
2022-12-20T13:12:40.990Z,3.90
2022-12-20T13:15:21.211Z,4.00
2022-12-20T13:17:59.087Z,3.60
2022-12-20T13:20:27.920Z,3.63
2022-12-20T13:23:11.686Z,3.70
2022-12-20T13:25:45.923Z,3.50
2022-12-20T13:28:19.017Z,3.57
2022-12-20T13:30:47.963Z,3.70
2022-12-20T13:33:24.411Z,4.17
2022-12-20T13:35:55.577Z,3.53
2022-12-20T13:38:48.148Z,3.47
2022-12-20T13:41:34.845Z,3.83
2022-12-20T13:44:14.983Z,2.80
2022-12-20T13:46:47.245Z,3.87
2022-12-20T13:49:43.895Z,3.43
2022-12-20T13:52:11.427Z,3.70
2022-12-20T13:54:49.054Z,3.63
2022-12-20T13:59:49.935Z,3.63
2022-12-20T14:02:25.265Z,3.40
2022-12-20T14:05:02.104Z,3.60
2022-12-20T14:07:32.979Z,3.70
2022-12-20T14:10:17.965Z,3.67
2022-12-20T14:12:46.471Z,3.60
2022-12-20T14:15:28.423Z,3.47
2022-12-20T14:17:56.804Z,3.40
2022-12-20T14:20:26.759Z,3.70
2022-12-20T14:23:18.689Z,3.40
2022-12-20T14:26:01.829Z,3.53
2022-12-20T14:28:35.756Z,3.53
2022-12-20T14:31:04.436Z,3.83
2022-12-20T14:33:36.647Z,3.00
2022-12-20T14:36:31.827Z,3.53
2022-12-20T14:38:59.536Z,3.90
2022-12-20T14:41:36.425Z,3.33
2022-12-20T14:44:25.086Z,3.63
2022-12-20T14:46:54.412Z,3.97
2022-12-20T14:49:24.295Z,4.10
2022-12-20T14:51:52.870Z,4.13
2022-12-20T14:57:24.759Z,3.67
2022-12-20T15:00:14.928Z,3.07
2022-12-20T15:02:50.812Z,3.80
2022-12-20T15:05:37.753Z,3.50
2022-12-20T15:08:27.480Z,4.10
2022-12-20T15:11:10.722Z,3.63
2022-12-20T15:13:55.721Z,4.10
2022-12-20T15:16:28.106Z,3.50
2022-12-20T15:18:58.558Z,3.90
2022-12-20T15:21:40.572Z,3.80
2022-12-20T15:24:14.337Z,4.23
2022-12-20T15:26:41.956Z,4.07
2022-12-20T15:29:24.145Z,4.30
2022-12-20T15:32:15.476Z,3.37
2022-12-20T15:34:43.191Z,3.60
2022-12-20T15:37:18.287Z,4.33
2022-12-20T15:39:46.572Z,4.33
2022-12-20T15:42:18.235Z,4.30
2022-12-20T15:44:46.421Z,3.80
2022-12-20T15:47:17.089Z,4.40
2022-12-20T15:49:49.891Z,4.50
2022-12-20T15:52:25.845Z,4.17
2022-12-20T15:54:53.311Z,4.27
2022-12-20T15:57:21.037Z,4.17
2022-12-20T16:00:00.295Z,4.13
2022-12-20T16:02:32.893Z,3.63
2022-12-20T16:05:01.728Z,6.07
2022-12-20T16:07:30.753Z,4.67
2022-12-20T16:09:58.332Z,5.17
2022-12-20T16:12:29.029Z,3.63
2022-12-20T16:14:57.097Z,4.10
2022-12-20T16:17:24.818Z,4.00
2022-12-20T16:19:52.537Z,3.93
2022-12-20T16:22:22.460Z,4.20
2022-12-20T16:24:50.694Z,4.57
2022-12-20T16:27:18.246Z,4.10
2022-12-20T16:29:45.883Z,4.10
2022-12-20T16:32:15.706Z,3.97
2022-12-20T16:34:44.403Z,4.10
2022-12-20T16:37:12.194Z,4.63
2022-12-20T16:39:40.103Z,5.20
2022-12-20T16:42:17.174Z,3.70
2022-12-20T16:44:46.019Z,4.10
2022-12-20T16:47:14.948Z,4.70
2022-12-20T16:49:51.736Z,4.33
2022-12-20T16:52:22.119Z,4.38
2022-12-20T16:54:50.559Z,5.03
2022-12-20T16:57:18.206Z,3.93
2022-12-20T16:59:45.801Z,4.20
2022-12-20T17:02:32.805Z,4.40
2022-12-20T17:05:00.906Z,4.00
2022-12-20T17:07:30.543Z,4.27
2022-12-20T17:09:59.190Z,4.07
2022-12-20T17:12:26.868Z,4.10
2022-12-20T17:14:54.406Z,3.70
2022-12-20T17:17:22.053Z,4.90
2022-12-20T17:19:49.575Z,4.47
2022-12-20T17:22:24.738Z,4.50
2022-12-20T17:24:54.601Z,4.90
2022-12-20T17:27:22.218Z,4.57
2022-12-20T17:29:50.895Z,4.57
2022-12-20T17:32:21.966Z,4.47
2022-12-20T17:34:50.251Z,4.73
2022-12-20T17:37:18.111Z,4.80
2022-12-20T17:39:45.845Z,3.93
2022-12-20T17:42:14.092Z,4.70
2022-12-20T17:44:41.692Z,4.40
2022-12-20T17:47:11.831Z,4.57
2022-12-20T17:49:39.535Z,4.60
2022-12-20T17:52:15.695Z,4.73
2022-12-20T17:54:43.552Z,3.93
2022-12-20T17:57:16.410Z,4.00
2022-12-20T17:59:44.509Z,4.60
2022-12-20T18:02:19.999Z,4.13
2022-12-20T18:04:47.908Z,4.60
2022-12-20T18:07:15.401Z,3.30
2022-12-20T18:09:42.950Z,4.13
2022-12-20T18:12:11.024Z,4.07
2022-12-20T18:14:38.589Z,4.80
2022-12-20T18:17:06.110Z,4.23
2022-12-20T18:19:33.722Z,4.93
2022-12-20T18:22:01.585Z,5.00
2022-12-20T18:24:29.234Z,4.40
2022-12-20T18:26:56.760Z,4.13
2022-12-20T18:29:24.260Z,4.87
2022-12-20T18:31:51.839Z,5.57
2022-12-20T18:34:19.602Z,5.77
2022-12-20T18:36:47.050Z,4.57
2022-12-20T18:39:14.767Z,5.53
2022-12-20T18:41:44.312Z,5.00
2022-12-20T18:44:12.145Z,5.63
2022-12-20T18:46:40.949Z,5.40
2022-12-20T18:49:09.868Z,4.93
2022-12-20T18:51:37.384Z,5.57
2022-12-20T18:54:07.256Z,5.57
2022-12-20T18:56:37.596Z,6.10
2022-12-20T18:59:11.262Z,6.10
2022-12-20T19:01:41.821Z,6.83
2022-12-20T19:04:10.505Z,8.27
2022-12-20T19:06:38.799Z,6.73
2022-12-20T19:09:10.370Z,6.87
2022-12-20T19:11:38.117Z,6.77
2022-12-20T19:14:06.218Z,6.53
2022-12-20T19:16:34.520Z,7.23
2022-12-20T19:19:03.257Z,7.27
2022-12-20T19:21:42.017Z,7.10
2022-12-20T19:24:11.374Z,7.00
2022-12-20T19:26:39.840Z,7.13
2022-12-20T19:29:11.689Z,7.23
2022-12-20T19:31:39.243Z,7.30
2022-12-20T19:34:09.162Z,7.40
2022-12-20T19:36:42.008Z,7.00
2022-12-20T19:39:28.973Z,6.57
2022-12-20T19:42:23.147Z,7.75
2022-12-20T19:44:45.092Z,7.95
2022-12-20T19:47:13.338Z,7.20
2022-12-20T19:49:40.954Z,5.97
2022-12-20T19:52:08.511Z,7.30
2022-12-20T19:54:36.032Z,7.67
2022-12-20T19:57:03.675Z,7.13
2022-12-20T19:59:31.575Z,7.70
2022-12-20T20:01:59.322Z,7.60
2022-12-20T20:04:27.548Z,6.93
2022-12-20T20:06:56.489Z,6.60
2022-12-20T20:09:24.098Z,7.30
2022-12-20T20:11:51.849Z,7.93
2022-12-20T20:14:19.417Z,6.93
2022-12-20T20:16:46.958Z,6.60
2022-12-20T20:19:14.770Z,7.13
2022-12-20T20:21:42.397Z,6.50
2022-12-20T20:24:10.242Z,7.00
2022-12-20T20:26:38.105Z,6.90
2022-12-20T20:29:07.337Z,7.53
2022-12-20T20:31:34.953Z,7.40
2022-12-20T20:34:03.129Z,7.17
2022-12-20T20:36:30.719Z,6.47
2022-12-20T20:38:58.722Z,7.50
2022-12-20T20:41:26.335Z,6.97
2022-12-20T20:43:53.828Z,7.03
2022-12-20T20:46:21.706Z,6.97
2022-12-20T20:48:49.204Z,6.77
2022-12-20T20:51:16.893Z,7.07
2022-12-20T20:53:44.422Z,7.40
2022-12-20T20:56:12.130Z,6.73
2022-12-20T20:58:39.834Z,6.90
2022-12-20T21:01:08.883Z,7.63
2022-12-20T21:03:37.395Z,6.70
2022-12-20T21:06:38.647Z,7.13
2022-12-20T21:08:55.756Z,6.97
2022-12-20T21:11:23.580Z,7.10
2022-12-20T21:13:51.167Z,6.70
2022-12-20T21:16:22.623Z,7.17
2022-12-20T21:18:55.187Z,7.50
2022-12-20T21:21:24.626Z,8.07
2022-12-20T21:23:53.233Z,7.20
2022-12-20T21:26:22.276Z,7.43
2022-12-20T21:28:49.879Z,8.27
2022-12-20T21:31:19.569Z,7.23
2022-12-20T21:33:47.390Z,6.77
2022-12-20T21:36:17.268Z,7.13
2022-12-20T21:38:56.229Z,7.63
2022-12-20T21:41:26.199Z,7.83
2022-12-20T21:43:58.335Z,6.93
2022-12-20T21:46:27.863Z,7.83
2022-12-20T21:48:55.741Z,8.73
2022-12-20T21:51:25.652Z,7.30
2022-12-20T21:53:58.343Z,7.53
2022-12-20T21:56:28.085Z,7.57
2022-12-20T21:58:55.732Z,8.20
2022-12-20T22:01:26.484Z,8.73
2022-12-20T22:04:06.687Z,7.70
2022-12-20T22:06:34.899Z,8.03
2022-12-20T22:09:07.474Z,8.90
2022-12-20T22:11:35.324Z,7.77
2022-12-20T22:14:02.870Z,8.03
2022-12-20T22:16:32.446Z,8.63
2022-12-20T22:19:00.797Z,7.97
2022-12-20T22:21:31.562Z,8.23
2022-12-20T22:24:00.577Z,7.97
2022-12-20T22:26:30.553Z,7.83
2022-12-20T22:29:01.244Z,8.53
2022-12-20T22:31:29.342Z,8.00
2022-12-20T22:33:57.972Z,8.63
2022-12-20T22:36:25.933Z,7.80
2022-12-20T22:38:55.445Z,8.53
2022-12-20T22:41:26.585Z,7.73
2022-12-20T22:43:54.512Z,8.03
2022-12-20T22:46:22.183Z,7.60
2022-12-20T22:48:49.744Z,7.77
2022-12-20T22:51:20.446Z,7.17
2022-12-20T22:53:49.471Z,7.90
2022-12-20T22:56:19.602Z,7.47
2022-12-20T22:58:48.132Z,7.70
2022-12-20T23:01:17.627Z,7.67
2022-12-20T23:03:46.029Z,6.63
2022-12-20T23:06:15.969Z,7.10
2022-12-20T23:08:44.230Z,6.63
2022-12-20T23:11:35.338Z,7.53
2022-12-20T23:14:22.647Z,6.43
2022-12-20T23:16:50.766Z,6.93
2022-12-20T23:19:18.364Z,6.63
2022-12-20T23:22:04.604Z,7.90
2022-12-20T23:24:32.125Z,7.17
2022-12-20T23:26:59.788Z,7.07
2022-12-20T23:29:27.430Z,7.37
2022-12-20T23:31:54.950Z,7.20
2022-12-20T23:34:23.348Z,6.80
2022-12-20T23:36:51.785Z,8.40
2022-12-20T23:39:19.231Z,8.27
2022-12-20T23:41:46.769Z,7.03
2022-12-20T23:44:14.269Z,7.60
2022-12-20T23:46:41.812Z,7.83
2022-12-20T23:49:09.313Z,7.43
2022-12-20T23:51:36.821Z,7.87
2022-12-20T23:54:04.579Z,7.97
2022-12-20T23:56:32.084Z,7.60
2022-12-20T23:58:59.621Z,7.37
